createdAt,value
2018-05-16T00:01:07.182Z,18.16
2018-05-16T00:03:34.726Z,19.90
2018-05-16T00:06:02.994Z,19.62
2018-05-16T00:08:30.494Z,18.74
2018-05-16T00:10:58.789Z,22.38
2018-05-16T00:13:27.049Z,22.08
2018-05-16T00:15:55.337Z,22.50
2018-05-16T00:18:22.865Z,20.84
2018-05-16T00:20:52.491Z,20.56
2018-05-16T00:23:21.616Z,19.06
2018-05-16T00:25:51.024Z,21.40
2018-05-16T00:28:18.517Z,19.60
2018-05-16T00:30:46.797Z,24.36
2018-05-16T00:33:14.291Z,22.64
2018-05-16T00:35:42.580Z,21.50
2018-05-16T00:38:11.134Z,20.64
2018-05-16T00:40:39.422Z,21.56
2018-05-16T00:43:07.680Z,18.76
2018-05-16T00:45:35.225Z,19.46
2018-05-16T00:48:03.492Z,22.22
2018-05-16T00:50:31.748Z,22.86
2018-05-16T00:53:00.074Z,21.24
2018-05-16T00:55:28.342Z,23.04
2018-05-16T00:57:55.862Z,24.44
2018-05-16T01:00:24.169Z,21.50
2018-05-16T01:02:52.825Z,22.16
2018-05-16T01:05:21.592Z,21.76
2018-05-16T01:07:50.287Z,22.76
2018-05-16T01:10:18.579Z,20.28
2018-05-16T01:12:46.866Z,27.90
2018-05-16T01:15:14.354Z,20.20
2018-05-16T01:17:42.625Z,22.88
2018-05-16T01:20:10.917Z,21.48
2018-05-16T01:22:39.189Z,24.02
2018-05-16T01:25:06.753Z,19.18
2018-05-16T01:27:34.248Z,23.34
2018-05-16T01:30:02.509Z,22.50
2018-05-16T01:32:30.800Z,20.78
2018-05-16T01:34:59.063Z,19.94
2018-05-16T01:37:26.597Z,22.76
2018-05-16T01:39:54.891Z,26.72
2018-05-16T01:42:22.389Z,25.78
2018-05-16T01:44:51.624Z,21.84
2018-05-16T01:47:20.598Z,21.54
2018-05-16T01:49:48.861Z,25.62
2018-05-16T01:52:16.389Z,23.26
2018-05-16T01:54:44.686Z,26.12
2018-05-16T01:57:12.988Z,24.02
2018-05-16T01:59:42.341Z,22.56
2018-05-16T02:02:11.578Z,23.00
2018-05-16T02:04:39.110Z,21.12
2018-05-16T02:07:07.409Z,23.46
2018-05-16T02:09:35.719Z,26.72
2018-05-16T02:12:03.987Z,22.34
2018-05-16T02:14:31.510Z,22.96
2018-05-16T02:16:59.777Z,21.74
2018-05-16T02:19:28.084Z,23.36
2018-05-16T02:21:55.582Z,24.62
2018-05-16T02:24:23.873Z,24.90
2018-05-16T02:26:52.632Z,24.08
2018-05-16T02:29:20.964Z,22.72
2018-05-16T02:31:48.506Z,21.34
2018-05-16T02:34:16.025Z,21.20
2018-05-16T02:36:44.344Z,22.88
2018-05-16T02:39:12.936Z,27.40
2018-05-16T02:41:42.348Z,21.32
2018-05-16T02:44:11.152Z,22.86
2018-05-16T02:46:39.431Z,21.40
2018-05-16T02:49:07.753Z,22.36
2018-05-16T02:51:36.021Z,20.20
2018-05-16T02:54:03.555Z,25.02
2018-05-16T02:56:31.062Z,23.00
2018-05-16T02:58:59.361Z,25.16
2018-05-16T03:01:27.621Z,19.90
2018-05-16T03:03:55.941Z,22.52
2018-05-16T03:06:23.441Z,20.50
2018-05-16T03:08:51.035Z,21.90
2018-05-16T03:11:19.336Z,26.54
2018-05-16T03:13:47.601Z,20.02
2018-05-16T03:16:15.905Z,22.04
2018-05-16T03:18:44.177Z,21.18
2018-05-16T03:21:12.776Z,21.56
2018-05-16T03:23:42.273Z,21.86
2018-05-16T03:26:10.175Z,18.40
2018-05-16T03:28:37.709Z,20.04
2018-05-16T03:31:05.981Z,17.50
2018-05-16T03:33:34.278Z,21.08
2018-05-16T03:36:01.795Z,17.48
2018-05-16T03:38:30.052Z,19.66
2018-05-16T03:40:58.353Z,18.28
2018-05-16T03:43:25.849Z,19.52
2018-05-16T03:45:54.159Z,19.90
2018-05-16T03:48:21.660Z,22.78
2018-05-16T03:50:49.957Z,21.10
2018-05-16T03:53:17.473Z,25.66
2018-05-16T03:55:45.012Z,24.86
2018-05-16T03:58:24.589Z,25.30
2018-05-16T04:01:04.708Z,21.70
2018-05-16T04:03:45.568Z,21.50
2018-05-16T04:06:13.101Z,25.14
2018-05-16T04:08:42.696Z,22.50
2018-05-16T04:11:12.009Z,23.90
2018-05-16T04:13:40.714Z,25.98
2018-05-16T04:16:08.252Z,24.74
2018-05-16T04:18:35.765Z,25.14
2018-05-16T04:21:04.044Z,23.58
2018-05-16T04:23:32.377Z,24.10
2018-05-16T04:25:59.921Z,22.94
2018-05-16T04:28:27.427Z,27.60
2018-05-16T04:30:55.699Z,25.10
2018-05-16T04:33:23.228Z,24.38
2018-05-16T04:35:50.719Z,24.46
2018-05-16T04:38:19.029Z,23.68
2018-05-16T04:40:47.305Z,27.68
2018-05-16T04:43:14.797Z,27.72
2018-05-16T04:45:43.090Z,24.62
2018-05-16T04:48:11.713Z,30.14
2018-05-16T04:50:40.978Z,29.04
2018-05-16T04:53:09.257Z,25.28
2018-05-16T04:55:36.793Z,25.40
2018-05-16T04:58:04.285Z,24.22
2018-05-16T05:00:33.244Z,28.60
2018-05-16T05:03:01.543Z,25.56
2018-05-16T05:05:29.069Z,31.44
2018-05-16T05:07:57.381Z,26.14
2018-05-16T05:10:25.672Z,25.18
2018-05-16T05:12:53.937Z,24.16
2018-05-16T05:15:21.465Z,23.24
2018-05-16T05:17:49.768Z,22.00
2018-05-16T05:20:18.049Z,22.98
2018-05-16T05:22:45.557Z,26.52
2018-05-16T05:25:13.856Z,23.64
2018-05-16T05:27:42.119Z,23.32
2018-05-16T05:30:11.415Z,24.96
2018-05-16T05:32:40.332Z,21.16
2018-05-16T05:35:07.860Z,16.80
2018-05-16T05:37:36.146Z,17.80
2018-05-16T05:40:04.437Z,16.22
2018-05-16T05:42:32.974Z,16.46
2018-05-16T05:45:00.500Z,15.04
2018-05-16T05:47:28.765Z,13.50
2018-05-16T05:49:57.058Z,13.06
2018-05-16T05:52:24.557Z,14.50
2018-05-16T05:54:52.876Z,12.78
2018-05-16T05:57:20.366Z,12.62
2018-05-16T05:59:48.669Z,12.90
2018-05-16T06:02:16.973Z,19.34
2018-05-16T06:04:44.488Z,14.14
2018-05-16T06:07:12.764Z,14.08
2018-05-16T06:09:41.549Z,14.02
2018-05-16T06:12:09.048Z,11.54
2018-05-16T06:14:37.565Z,13.32
2018-05-16T06:17:05.857Z,14.66
2018-05-16T06:19:34.208Z,11.62
2018-05-16T06:22:02.875Z,13.16
2018-05-16T06:24:31.181Z,16.60
2018-05-16T06:26:58.742Z,14.54
2018-05-16T06:29:26.986Z,14.66
2018-05-16T06:31:54.493Z,13.46
2018-05-16T06:34:22.785Z,14.88
2018-05-16T06:36:50.300Z,12.38
2018-05-16T06:39:18.706Z,19.96
2018-05-16T06:41:46.096Z,19.06
2018-05-16T06:44:13.626Z,18.52
2018-05-16T06:46:43.157Z,14.74
2018-05-16T06:49:12.180Z,13.84
2018-05-16T06:51:40.897Z,13.98
2018-05-16T06:54:09.066Z,16.28
2018-05-16T06:56:36.594Z,12.72
2018-05-16T06:59:04.877Z,14.32
2018-05-16T07:01:33.259Z,14.96
2018-05-16T07:04:00.762Z,14.90
2018-05-16T07:06:29.007Z,16.98
2018-05-16T07:08:56.541Z,16.38
2018-05-16T07:11:24.796Z,23.96
2018-05-16T07:13:52.318Z,24.00
2018-05-16T07:16:19.860Z,14.80
2018-05-16T07:18:47.356Z,17.24
2018-05-16T07:21:15.654Z,24.52
2018-05-16T07:23:44.100Z,15.26
2018-05-16T07:26:13.022Z,17.48
2018-05-16T07:28:42.201Z,17.10
2018-05-16T07:31:11.321Z,16.50
2018-05-16T07:33:40.313Z,15.32
2018-05-16T07:36:08.672Z,15.92
2018-05-16T07:38:36.946Z,15.38
2018-05-16T07:41:05.234Z,14.98
2018-05-16T07:43:33.545Z,15.64
2018-05-16T07:46:01.041Z,15.87
2018-05-16T07:48:28.563Z,15.14
2018-05-16T07:50:57.218Z,16.50
2018-05-16T07:53:25.523Z,16.90
2018-05-16T07:55:53.854Z,16.82
2018-05-16T07:58:23.374Z,15.68
2018-05-16T08:00:51.686Z,15.74
2018-05-16T08:03:19.237Z,17.64
2018-05-16T08:05:46.757Z,14.68
2018-05-16T08:08:15.129Z,17.80
2018-05-16T08:10:43.406Z,19.30
2018-05-16T08:13:12.038Z,17.98
2018-05-16T08:15:41.078Z,19.26
2018-05-16T08:18:09.385Z,18.48
2018-05-16T08:20:37.692Z,18.44
2018-05-16T08:23:05.244Z,16.76
2018-05-16T08:25:32.776Z,17.44
2018-05-16T08:28:01.078Z,18.98
2018-05-16T08:30:29.342Z,17.80
2018-05-16T08:32:57.292Z,21.62
2018-05-16T08:35:24.825Z,19.12
2018-05-16T08:37:53.111Z,18.68
2018-05-16T08:40:21.408Z,18.88
2018-05-16T08:42:49.700Z,20.44
2018-05-16T08:45:17.237Z,20.98
2018-05-16T08:47:44.740Z,19.82
2018-05-16T08:50:13.106Z,23.90
2018-05-16T08:52:41.876Z,23.18
2018-05-16T08:55:09.381Z,21.28
2018-05-16T08:57:37.659Z,22.80
2018-05-16T09:00:05.920Z,22.12
2018-05-16T09:02:34.228Z,20.22
2018-05-16T09:05:02.512Z,21.58
2018-05-16T09:07:30.769Z,21.60
2018-05-16T09:09:59.065Z,20.92
2018-05-16T09:12:27.240Z,25.70
2018-05-16T09:14:55.542Z,20.02
2018-05-16T09:17:23.129Z,21.22
2018-05-16T09:19:51.382Z,32.64
2018-05-16T09:22:19.749Z,19.98
2018-05-16T09:24:48.017Z,20.64
2018-05-16T09:27:15.543Z,17.56
2018-05-16T09:29:43.805Z,17.26
2018-05-16T09:32:12.592Z,15.12
2018-05-16T09:34:41.011Z,21.60
2018-05-16T09:37:08.520Z,16.36
2018-05-16T09:39:36.816Z,15.06
2018-05-16T09:42:04.353Z,15.66
2018-05-16T09:44:31.938Z,16.48
2018-05-16T09:46:59.444Z,16.68
2018-05-16T09:49:27.757Z,15.06
2018-05-16T09:51:55.335Z,16.10
2018-05-16T09:54:22.925Z,14.06
2018-05-16T09:56:51.183Z,16.86
2018-05-16T09:59:19.485Z,18.88
2018-05-16T10:01:47.012Z,21.02
2018-05-16T10:04:15.288Z,14.58
2018-05-16T10:06:42.832Z,14.20
2018-05-16T10:09:11.821Z,15.12
2018-05-16T10:11:39.329Z,17.20
2018-05-16T10:14:07.597Z,17.86
2018-05-16T10:16:35.136Z,16.06
2018-05-16T10:19:02.815Z,12.46
2018-05-16T10:21:31.210Z,13.92
2018-05-16T10:23:59.253Z,12.72
2018-05-16T10:26:27.281Z,12.94
2018-05-16T10:28:54.822Z,11.92
2018-05-16T10:31:23.094Z,13.56
2018-05-16T10:33:50.710Z,13.40
2018-05-16T10:36:18.230Z,13.32
2018-05-16T10:38:46.569Z,13.30
2018-05-16T10:41:14.879Z,13.28
2018-05-16T10:43:42.505Z,12.32
2018-05-16T10:46:10.718Z,13.40
2018-05-16T10:48:38.288Z,13.38
2018-05-16T10:51:06.575Z,13.70
2018-05-16T10:53:34.122Z,12.54
2018-05-16T10:56:01.778Z,11.60
2018-05-16T10:58:29.278Z,12.90
2018-05-16T11:00:58.496Z,12.82
2018-05-16T11:03:26.098Z,14.18
2018-05-16T11:05:53.563Z,11.18
2018-05-16T11:08:21.065Z,11.70
2018-05-16T11:10:49.359Z,11.14
2018-05-16T11:13:17.672Z,17.00
2018-05-16T11:15:45.568Z,15.22
2018-05-16T11:18:13.133Z,10.86
2018-05-16T11:20:42.241Z,18.72
2018-05-16T11:23:10.158Z,13.00
2018-05-16T11:25:38.529Z,15.06
2018-05-16T11:28:06.038Z,12.32
2018-05-16T11:30:34.406Z,12.34
2018-05-16T11:33:01.945Z,12.36
2018-05-16T11:35:30.244Z,11.82
2018-05-16T11:37:57.752Z,12.90
2018-05-16T11:40:26.044Z,12.68
2018-05-16T11:42:53.549Z,10.46
2018-05-16T11:45:21.982Z,10.94
2018-05-16T11:47:50.366Z,10.54
2018-05-16T11:50:18.684Z,9.42
2018-05-16T11:52:47.144Z,10.46
2018-05-16T11:55:14.700Z,11.16
2018-05-16T11:57:42.268Z,8.98
2018-05-16T12:00:11.479Z,8.66
2018-05-16T12:02:39.790Z,12.66
2018-05-16T12:05:08.054Z,9.90
2018-05-16T12:07:35.566Z,14.84
2018-05-16T12:10:03.936Z,11.18
2018-05-16T12:12:31.434Z,13.44
2018-05-16T12:14:58.946Z,8.44
2018-05-16T12:17:27.276Z,9.48
2018-05-16T12:19:56.183Z,7.82
2018-05-16T12:22:24.485Z,8.18
2018-05-16T12:24:52.757Z,12.68
2018-05-16T12:27:21.243Z,8.20
2018-05-16T12:29:49.517Z,12.88
2018-05-16T12:32:17.820Z,12.72
2018-05-16T12:34:45.330Z,10.18
2018-05-16T12:37:13.593Z,8.38
2018-05-16T12:39:41.886Z,9.58
2018-05-16T12:42:11.201Z,10.84
2018-05-16T12:44:38.925Z,10.60
2018-05-16T12:47:07.185Z,9.76
2018-05-16T12:49:35.472Z,8.08
2018-05-16T12:52:03.022Z,13.72
2018-05-16T12:54:31.410Z,11.44
2018-05-16T12:56:58.908Z,10.04
2018-05-16T12:59:27.231Z,16.46
2018-05-16T13:01:54.726Z,9.04
2018-05-16T13:04:23.017Z,9.40
2018-05-16T13:06:50.517Z,9.60
2018-05-16T13:09:18.822Z,10.34
2018-05-16T13:11:47.944Z,13.46
2018-05-16T13:14:16.204Z,10.88
2018-05-16T13:16:44.494Z,11.12
2018-05-16T13:19:12.796Z,11.18
2018-05-16T13:21:41.769Z,11.46
2018-05-16T13:24:09.298Z,14.42
2018-05-16T13:26:37.648Z,11.00
2018-05-16T13:29:05.969Z,12.40
2018-05-16T13:31:33.489Z,14.90
2018-05-16T13:34:02.769Z,15.26
2018-05-16T13:36:30.301Z,12.88
2018-05-16T13:38:57.872Z,12.90
2018-05-16T13:41:26.145Z,13.50
2018-05-16T13:43:54.645Z,16.12
2018-05-16T13:46:22.977Z,16.18
2018-05-16T13:48:51.273Z,14.98
2018-05-16T13:51:19.596Z,16.08
2018-05-16T13:53:47.859Z,15.44
2018-05-16T13:56:15.400Z,22.18
2018-05-16T13:58:42.893Z,18.88
2018-05-16T14:01:12.389Z,17.52
2018-05-16T14:03:41.707Z,17.38
2018-05-16T14:06:09.233Z,19.92
2018-05-16T14:08:37.504Z,20.16
2018-05-16T14:11:05.827Z,17.28
2018-05-16T14:13:33.342Z,20.72
2018-05-16T14:16:01.666Z,18.30
2018-05-16T14:18:29.937Z,18.82
2018-05-16T14:20:58.216Z,19.86
2018-05-16T14:23:25.730Z,19.12
2018-05-16T14:25:54.005Z,22.24
2018-05-16T14:28:22.507Z,24.28
2018-05-16T14:30:50.800Z,15.18
2018-05-16T14:33:19.112Z,18.18
2018-05-16T14:35:48.170Z,19.52
2018-05-16T14:38:16.677Z,24.84
2018-05-16T14:40:44.949Z,24.98
2018-05-16T14:43:12.864Z,22.40
2018-05-16T14:45:41.968Z,23.36
2018-05-16T14:48:13.105Z,27.34
2018-05-16T14:50:42.520Z,22.82
2018-05-16T14:53:12.508Z,23.90
2018-05-16T14:55:40.818Z,24.50
2018-05-16T14:58:09.086Z,27.60
2018-05-16T15:00:38.280Z,27.98
2018-05-16T15:03:05.810Z,26.72
2018-05-16T15:05:33.414Z,27.30
2018-05-16T15:08:00.939Z,26.22
2018-05-16T15:10:29.238Z,24.48
2018-05-16T15:12:57.677Z,29.54
2018-05-16T15:15:27.608Z,25.70
2018-05-16T15:17:55.132Z,25.00
2018-05-16T15:20:23.408Z,23.98
2018-05-16T15:22:50.912Z,24.64
2018-05-16T15:25:18.524Z,23.14
2018-05-16T15:27:46.785Z,25.78
2018-05-16T15:30:15.110Z,29.20
2018-05-16T15:32:42.639Z,24.70
2018-05-16T15:35:10.972Z,23.46
2018-05-16T15:37:38.513Z,26.68
2018-05-16T15:40:07.733Z,27.26
2018-05-16T15:42:36.041Z,22.98
2018-05-16T15:45:04.537Z,26.06
2018-05-16T15:47:32.805Z,23.72
2018-05-16T15:50:01.165Z,27.12
2018-05-16T15:52:28.681Z,24.78
2018-05-16T15:54:56.944Z,26.06
2018-05-16T15:57:25.205Z,20.56
2018-05-16T15:59:55.496Z,18.98
2018-05-16T16:02:23.045Z,13.60
2018-05-16T16:04:51.312Z,14.72
2018-05-16T16:07:19.807Z,14.76
2018-05-16T16:09:49.195Z,15.96
2018-05-16T16:12:17.251Z,20.98
2018-05-16T16:14:44.793Z,17.72
2018-05-16T16:17:13.096Z,18.86
2018-05-16T16:19:42.360Z,23.48
2018-05-16T16:22:10.289Z,17.74
2018-05-16T16:24:37.810Z,18.44
2018-05-16T16:27:05.311Z,22.70
2018-05-16T16:29:33.606Z,21.72
2018-05-16T16:32:01.117Z,19.76
2018-05-16T16:34:34.891Z,25.08
2018-05-16T16:37:02.396Z,27.18
2018-05-16T16:39:30.701Z,26.12
2018-05-16T16:41:58.196Z,27.58
2018-05-16T16:44:25.700Z,26.12
2018-05-16T16:46:53.237Z,28.50
2018-05-16T16:49:21.550Z,21.36
2018-05-16T16:51:49.210Z,21.52
2018-05-16T16:54:20.377Z,22.06
2018-05-16T16:56:47.885Z,19.76
2018-05-16T16:59:16.185Z,24.82
2018-05-16T17:01:43.721Z,29.44
2018-05-16T17:04:11.908Z,22.70
2018-05-16T17:06:39.433Z,19.20
2018-05-16T17:09:07.740Z,23.46
2018-05-16T17:11:38.930Z,22.80
2018-05-16T17:14:07.338Z,19.70
2018-05-16T17:16:34.745Z,19.36
2018-05-16T17:19:02.260Z,23.10
2018-05-16T17:21:30.561Z,20.94
2018-05-16T17:23:58.090Z,16.94
2018-05-16T17:26:26.369Z,22.76
2018-05-16T17:28:53.874Z,25.84
2018-05-16T17:31:22.177Z,29.26
2018-05-16T17:33:50.453Z,21.32
2018-05-16T17:36:41.642Z,15.04
2018-05-16T17:39:10.316Z,21.00
2018-05-16T17:41:50.284Z,12.26
2018-05-16T17:44:19.062Z,15.02
2018-05-16T17:46:50.516Z,16.56
2018-05-16T17:49:19.286Z,17.00
2018-05-16T17:51:50.477Z,18.52
2018-05-16T17:54:18.341Z,20.68
2018-05-16T17:56:45.861Z,19.68
2018-05-16T17:59:15.102Z,15.00
2018-05-16T18:01:42.605Z,15.44
2018-05-16T18:04:11.056Z,13.54
2018-05-16T18:06:38.548Z,18.84
2018-05-16T18:09:06.848Z,13.54
2018-05-16T18:11:34.442Z,24.72
2018-05-16T18:14:16.833Z,17.04
2018-05-16T18:17:09.870Z,16.72
2018-05-16T18:19:38.161Z,15.18
2018-05-16T18:22:05.677Z,16.26
2018-05-16T18:24:33.177Z,18.90
2018-05-16T18:27:00.689Z,18.82
2018-05-16T18:29:32.208Z,13.64
2018-05-16T18:31:59.733Z,12.62
2018-05-16T18:34:28.256Z,15.96
2018-05-16T18:36:55.780Z,20.44
2018-05-16T18:39:25.013Z,16.06
2018-05-16T18:41:52.533Z,18.28
2018-05-16T18:44:20.066Z,12.48
2018-05-16T18:46:48.929Z,20.50
2018-05-16T18:49:17.860Z,15.20
2018-05-16T18:51:45.278Z,13.22
2018-05-16T18:54:13.158Z,17.72
2018-05-16T18:56:40.669Z,17.24
2018-05-16T18:59:08.957Z,19.62
2018-05-16T19:01:42.729Z,17.88
2018-05-16T19:04:12.344Z,15.78
2018-05-16T19:06:39.834Z,25.56
2018-05-16T19:09:08.126Z,14.38
2018-05-16T19:11:35.617Z,17.74
2018-05-16T19:14:03.141Z,24.82
2018-05-16T19:16:30.775Z,17.76
2018-05-16T19:18:58.286Z,19.74
2018-05-16T19:21:26.574Z,19.68
2018-05-16T19:23:54.077Z,19.96
2018-05-16T19:26:21.621Z,14.36
2018-05-16T19:28:49.117Z,15.46
2018-05-16T19:31:20.393Z,16.66
2018-05-16T19:33:48.508Z,26.96
2018-05-16T19:36:16.001Z,18.06
2018-05-16T19:38:43.525Z,23.44
2018-05-16T19:41:12.697Z,17.70
2018-05-16T19:43:41.255Z,20.58
2018-05-16T19:46:08.865Z,20.78
2018-05-16T19:48:37.044Z,16.32
2018-05-16T19:51:05.347Z,18.26
2018-05-16T19:53:32.899Z,19.56
2018-05-16T19:56:00.431Z,15.58
2018-05-16T19:58:28.809Z,19.48
2018-05-16T20:00:57.010Z,12.90
2018-05-16T20:03:25.395Z,20.72
2018-05-16T20:05:52.821Z,19.34
2018-05-16T20:08:22.113Z,16.28
2018-05-16T20:10:50.370Z,17.28
2018-05-16T20:13:17.913Z,17.12
2018-05-16T20:15:45.432Z,22.26
2018-05-16T20:18:13.003Z,19.36
2018-05-16T20:20:41.893Z,17.20
2018-05-16T20:23:11.050Z,23.66
2018-05-16T20:25:39.354Z,17.90
2018-05-16T20:28:12.114Z,18.04
2018-05-16T20:30:41.429Z,20.42
2018-05-16T20:33:08.933Z,16.46
2018-05-16T20:35:37.257Z,22.28
2018-05-16T20:38:04.761Z,19.82
2018-05-16T20:40:33.053Z,18.02
2018-05-16T20:43:01.313Z,20.56
2018-05-16T20:45:28.845Z,17.56
2018-05-16T20:47:57.133Z,25.00
2018-05-16T20:50:25.396Z,16.46
2018-05-16T20:52:52.929Z,15.64
2018-05-16T20:55:21.178Z,14.78
2018-05-16T20:57:48.709Z,16.76
2018-05-16T21:00:16.986Z,16.32
2018-05-16T21:02:44.528Z,19.40
2018-05-16T21:05:12.083Z,15.30
2018-05-16T21:07:41.075Z,14.08
2018-05-16T21:10:09.383Z,19.98
2018-05-16T21:12:36.890Z,14.06
2018-05-16T21:15:05.161Z,17.58
2018-05-16T21:17:32.688Z,21.36
2018-05-16T21:20:00.955Z,21.08
2018-05-16T21:22:29.115Z,22.96
2018-05-16T21:24:57.405Z,26.86
2018-05-16T21:27:25.689Z,23.18
2018-05-16T21:29:53.996Z,25.98
2018-05-16T21:32:22.254Z,21.38
2018-05-16T21:34:49.802Z,21.68
2018-05-16T21:37:17.293Z,20.44
2018-05-16T21:39:45.592Z,23.76
2018-05-16T21:42:13.861Z,14.02
2018-05-16T21:44:42.178Z,16.30
2018-05-16T21:47:11.181Z,18.94
2018-05-16T21:49:39.461Z,16.92
2018-05-16T21:52:07.000Z,17.60
2018-05-16T21:54:34.493Z,23.84
2018-05-16T21:57:02.026Z,16.84
2018-05-16T21:59:31.371Z,17.44
2018-05-16T22:01:59.377Z,18.96
2018-05-16T22:04:29.335Z,23.32
2018-05-16T22:06:56.849Z,16.72
2018-05-16T22:09:25.137Z,21.26
2018-05-16T22:11:53.412Z,18.54
2018-05-16T22:14:20.947Z,24.08
2018-05-16T22:16:48.461Z,23.02
2018-05-16T22:19:16.752Z,17.32
2018-05-16T22:21:45.026Z,19.10
2018-05-16T22:24:12.556Z,16.50
2018-05-16T22:26:40.848Z,17.04
2018-05-16T22:29:09.114Z,19.04
2018-05-16T22:31:42.943Z,17.08
2018-05-16T22:34:17.868Z,21.34
2018-05-16T22:36:51.855Z,17.98
2018-05-16T22:39:25.780Z,19.24
2018-05-16T22:41:59.387Z,14.04
2018-05-16T22:44:42.634Z,22.32
2018-05-16T22:47:11.030Z,15.94
2018-05-16T22:49:39.317Z,13.26
2018-05-16T22:52:07.617Z,16.12
2018-05-16T22:54:35.148Z,15.56
2018-05-16T22:57:02.674Z,18.40
2018-05-16T22:59:31.023Z,15.94
2018-05-16T23:01:59.259Z,18.64
2018-05-16T23:04:26.752Z,20.30
2018-05-16T23:06:54.268Z,22.24
2018-05-16T23:09:22.559Z,26.86
2018-05-16T23:11:50.085Z,19.04
2018-05-16T23:14:17.595Z,21.82
2018-05-16T23:16:45.111Z,19.28
2018-05-16T23:19:13.361Z,19.00
2018-05-16T23:21:42.095Z,20.68
2018-05-16T23:24:11.437Z,18.06
2018-05-16T23:26:38.966Z,18.40
2018-05-16T23:29:07.230Z,19.30
2018-05-16T23:31:35.522Z,25.76
2018-05-16T23:34:04.773Z,14.56
2018-05-16T23:36:33.037Z,21.52
2018-05-16T23:39:01.336Z,19.38
2018-05-16T23:41:29.601Z,17.08
2018-05-16T23:43:57.869Z,20.68
2018-05-16T23:46:26.152Z,19.20
2018-05-16T23:48:54.585Z,22.48
2018-05-16T23:51:22.876Z,20.46
2018-05-16T23:53:51.185Z,22.16
2018-05-16T23:56:19.881Z,24.38
2018-05-16T23:58:47.400Z,23.80
